TFFRTBPB

Guest
Details From TFFR - Pointe a Pitre Le Raizet
To TBPB - Barbados/Grantley Adams Intl
Flight Number -
Tags decoded
Created
Modified
Stats Distance 226 nm / 418 km
Max Altitude 0 ft / 0 m
Waypoints 3
Social Downloads 1
Likes 0
Share VATSIM

Download

Looking for another format? Having issues loading an existing format? Contact us
Advertisement - Login to hide

Notes

Requested: TFFR D295E D237G FF09 MIVAS LIDOS BIRNO D3010 D2790 OLIDO OVKER FI09 ELIXA FS09 TBPB Unmatched points: D295E D237G FF09 MIVAS LIDOS D3010 D2790 OLIDO OVKER FI09 ELIXA FS09

Route

TFFR BIRNO TBPB

ID Type Via Altitude Latitude Longitude Leg Dist Tot Dist Heading (true) Name
O TFFR APT - 0 ft / 0 m 16.26531˚ -61.53181˚ - 0 nm - Pointe a Pitre Le Raizet
BIRNO FIX - 0 ft / 0 m 14.36519˚ -60.21067˚ 137 nm 137 nm 146° / 146° -
O TBPB APT - 0 ft / 0 m 13.07461˚ -59.49221˚ 88 nm 225 nm 152° / 152° Barbados/Grantley Adams Intl

Altitude Profile

Advertisement - Login to hide

Weather


0- 5 10 15 20 25 30 35+ Temperature / ° C

Clouds and Precipitation
Forecast for 2017-12-11 06:00 UTC. Updated an hour ago

Ground ~20,000 ft ~40,000 ft Winds

TFFR

Details ICAO TFFR (PTP)
Name Pointe a Pitre Le Raizet
Region France (Guadeloupe, Martinique, Saint Barthélemy, Saint Martin)
Timezone America/Guadeloupe (UTC-4.0)
Stats Elevation 35 ft / 11 m (AMSL)
Location 16.265306° -61.531808°
Runways 1
Magnetic Variation 14.857° W

METAR

TFFR 110600Z AUTO VRB02KT 9999 SCT050 22/20 Q1012 TEMPO 4000 SHRA SCT018TCU

Decode

TAF

Not found

Departure Runways

ID Width Length Bearing (true) Bearing (mag) Surface Threshold Offset Overrun Length
11 148 ft / 45 m 11,513 ft / 3,509 m 100.94° 115.80° Asphalt 0 ft / 0 m 0 ft / 0 m
29 148 ft / 45 m 11,513 ft / 3,509 m 280.95° 295.81° Asphalt 0 ft / 0 m 0 ft / 0 m

TBPB

Details ICAO TBPB (BGI)
Name Barbados/Grantley Adams Intl
Region Barbados
Timezone America/Barbados (UTC-4.0)
Stats Elevation 168 ft / 51 m (AMSL)
Location 13.074614° -59.492206°
Runways 1
Magnetic Variation 15.612° W

METAR

TBPB 110600Z 01004KT 9999 SCT020 23/21 Q1011 NOSIG

Decode

TAF

Not found

Destination Runways

ID Width Length Bearing (true) Bearing (mag) Surface Threshold Offset Overrun Length
09 148 ft / 45 m 11,924 ft / 3,635 m 75.84° 91.45° Asphalt 0 ft / 0 m 174 ft / 53 m
27 148 ft / 45 m 11,924 ft / 3,635 m 255.85° 271.46° Asphalt 0 ft / 0 m 0 ft / 0 m

Approach Navaids

Runway Type Ident Frequency Range Bearing (true) Bearing (mag) Slope Elevation
09 Localiser IBGI 110.10 MHz 18 nm / 33 km 75.97° 91.59° - 168 ft / 51 m (AMSL)
09 Glidescope IBGI 110.10 MHz 10 nm / 19 km 75.85° 91.46° 3.00° 168 ft / 51 m (AMSL)

Popular Alternatives